sensor_id;sensor_type;location;lat;lon;timestamp;P1;durP1;ratioP1;P2;durP2;ratioP2
53931;SDS011;39844;52.496;13.482;2024-03-08T00:01:19;14.17;;;6.87;;
53931;SDS011;39844;52.496;13.482;2024-03-08T00:03:44;13.67;;;6.23;;
53931;SDS011;39844;52.496;13.482;2024-03-08T00:06:10;11.33;;;6.00;;
53931;SDS011;39844;52.496;13.482;2024-03-08T00:08:35;9.20;;;6.07;;
53931;SDS011;39844;52.496;13.482;2024-03-08T00:11:00;9.23;;;5.47;;
53931;SDS011;39844;52.496;13.482;2024-03-08T00:13:26;8.67;;;5.13;;
53931;SDS011;39844;52.496;13.482;2024-03-08T00:15:51;8.43;;;5.67;;
53931;SDS011;39844;52.496;13.482;2024-03-08T00:18:16;11.60;;;6.00;;
53931;SDS011;39844;52.496;13.482;2024-03-08T00:20:42;9.63;;;5.27;;
53931;SDS011;39844;52.496;13.482;2024-03-08T00:23:07;8.73;;;5.17;;
53931;SDS011;39844;52.496;13.482;2024-03-08T00:25:33;7.60;;;5.50;;
53931;SDS011;39844;52.496;13.482;2024-03-08T00:27:58;9.63;;;6.00;;
53931;SDS011;39844;52.496;13.482;2024-03-08T00:30:23;11.30;;;5.57;;
53931;SDS011;39844;52.496;13.482;2024-03-08T00:32:48;7.43;;;4.93;;
53931;SDS011;39844;52.496;13.482;2024-03-08T00:35:14;8.70;;;5.97;;
53931;SDS011;39844;52.496;13.482;2024-03-08T00:37:40;8.20;;;5.97;;
53931;SDS011;39844;52.496;13.482;2024-03-08T00:40:05;10.83;;;6.47;;
53931;SDS011;39844;52.496;13.482;2024-03-08T00:42:31;10.30;;;6.50;;
53931;SDS011;39844;52.496;13.482;2024-03-08T00:44:56;11.23;;;6.10;;
53931;SDS011;39844;52.496;13.482;2024-03-08T00:47:22;10.43;;;6.20;;
53931;SDS011;39844;52.496;13.482;2024-03-08T00:49:47;11.67;;;6.63;;
53931;SDS011;39844;52.496;13.482;2024-03-08T00:52:12;10.40;;;5.87;;
53931;SDS011;39844;52.496;13.482;2024-03-08T00:54:37;12.10;;;6.47;;
53931;SDS011;39844;52.496;13.482;2024-03-08T00:57:03;7.53;;;5.07;;
53931;SDS011;39844;52.496;13.482;2024-03-08T00:59:29;8.53;;;5.00;;
53931;SDS011;39844;52.496;13.482;2024-03-08T01:01:54;13.57;;;6.20;;
53931;SDS011;39844;52.496;13.482;2024-03-08T01:04:20;10.90;;;6.33;;
53931;SDS011;39844;52.496;13.482;2024-03-08T01:06:45;14.13;;;6.60;;
53931;SDS011;39844;52.496;13.482;2024-03-08T01:09:10;14.27;;;7.13;;
53931;SDS011;39844;52.496;13.482;2024-03-08T01:11:36;10.90;;;6.33;;
53931;SDS011;39844;52.496;13.482;2024-03-08T01:14:01;13.90;;;6.80;;
53931;SDS011;39844;52.496;13.482;2024-03-08T01:16:26;11.60;;;6.23;;
53931;SDS011;39844;52.496;13.482;2024-03-08T01:18:52;13.50;;;7.17;;
53931;SDS011;39844;52.496;13.482;2024-03-08T01:21:17;10.77;;;6.77;;
53931;SDS011;39844;52.496;13.482;2024-03-08T01:23:42;10.07;;;5.60;;
53931;SDS011;39844;52.496;13.482;2024-03-08T01:26:08;10.50;;;5.87;;
53931;SDS011;39844;52.496;13.482;2024-03-08T01:28:33;14.97;;;5.53;;
53931;SDS011;39844;52.496;13.482;2024-03-08T01:30:58;13.77;;;6.43;;
53931;SDS011;39844;52.496;13.482;2024-03-08T01:33:24;12.53;;;6.37;;
53931;SDS011;39844;52.496;13.482;2024-03-08T01:35:51;11.63;;;7.00;;
53931;SDS011;39844;52.496;13.482;2024-03-08T01:38:19;13.30;;;6.40;;
53931;SDS011;39844;52.496;13.482;2024-03-08T01:40:45;11.53;;;5.50;;
53931;SDS011;39844;52.496;13.482;2024-03-08T01:43:20;9.40;;;5.23;;
53931;SDS011;39844;52.496;13.482;2024-03-08T01:45:47;12.30;;;5.90;;
53931;SDS011;39844;52.496;13.482;2024-03-08T01:48:13;8.80;;;6.13;;
53931;SDS011;39844;52.496;13.482;2024-03-08T01:50:39;10.53;;;5.47;;
53931;SDS011;39844;52.496;13.482;2024-03-08T01:53:06;11.00;;;6.80;;
53931;SDS011;39844;52.496;13.482;2024-03-08T01:55:33;8.73;;;6.07;;
53931;SDS011;39844;52.496;13.482;2024-03-08T01:57:59;10.00;;;5.87;;
53931;SDS011;39844;52.496;13.482;2024-03-08T02:00:24;9.23;;;4.97;;
53931;SDS011;39844;52.496;13.482;2024-03-08T02:02:51;13.10;;;5.90;;
53931;SDS011;39844;52.496;13.482;2024-03-08T02:05:19;12.60;;;6.23;;
53931;SDS011;39844;52.496;13.482;2024-03-08T02:07:45;13.30;;;6.37;;
53931;SDS011;39844;52.496;13.482;2024-03-08T02:10:10;13.20;;;6.57;;
53931;SDS011;39844;52.496;13.482;2024-03-08T02:12:35;11.43;;;6.33;;
53931;SDS011;39844;52.496;13.482;2024-03-08T02:15:01;9.40;;;5.67;;
53931;SDS011;39844;52.496;13.482;2024-03-08T02:17:26;11.40;;;5.70;;
53931;SDS011;39844;52.496;13.482;2024-03-08T02:19:52;10.73;;;5.90;;
53931;SDS011;39844;52.496;13.482;2024-03-08T02:22:17;7.03;;;4.60;;
53931;SDS011;39844;52.496;13.482;2024-03-08T02:24:48;9.77;;;6.33;;
53931;SDS011;39844;52.496;13.482;2024-03-08T02:27:13;15.07;;;6.47;;
53931;SDS011;39844;52.496;13.482;2024-03-08T02:29:40;9.40;;;5.63;;
53931;SDS011;39844;52.496;13.482;2024-03-08T02:32:07;10.07;;;5.93;;
53931;SDS011;39844;52.496;13.482;2024-03-08T02:34:32;12.03;;;6.27;;
53931;SDS011;39844;52.496;13.482;2024-03-08T02:36:58;11.13;;;6.30;;
53931;SDS011;39844;52.496;13.482;2024-03-08T02:39:23;8.77;;;5.97;;
53931;SDS011;39844;52.496;13.482;2024-03-08T02:41:48;11.40;;;5.77;;
53931;SDS011;39844;52.496;13.482;2024-03-08T02:44:14;9.20;;;6.40;;
53931;SDS011;39844;52.496;13.482;2024-03-08T02:46:39;13.30;;;7.07;;
53931;SDS011;39844;52.496;13.482;2024-03-08T02:49:04;14.37;;;6.13;;
53931;SDS011;39844;52.496;13.482;2024-03-08T02:51:29;10.23;;;6.40;;
53931;SDS011;39844;52.496;13.482;2024-03-08T02:53:55;14.20;;;7.10;;
53931;SDS011;39844;52.496;13.482;2024-03-08T02:56:20;14.63;;;7.60;;
53931;SDS011;39844;52.496;13.482;2024-03-08T02:58:45;14.50;;;7.07;;
53931;SDS011;39844;52.496;13.482;2024-03-08T03:01:10;11.73;;;7.37;;
53931;SDS011;39844;52.496;13.482;2024-03-08T03:03:36;16.27;;;7.80;;
53931;SDS011;39844;52.496;13.482;2024-03-08T03:06:01;15.20;;;8.40;;
53931;SDS011;39844;52.496;13.482;2024-03-08T03:08:26;17.20;;;8.40;;
53931;SDS011;39844;52.496;13.482;2024-03-08T03:10:52;18.43;;;7.93;;
53931;SDS011;39844;52.496;13.482;2024-03-08T03:13:17;12.23;;;6.80;;
53931;SDS011;39844;52.496;13.482;2024-03-08T03:15:42;19.90;;;7.97;;
53931;SDS011;39844;52.496;13.482;2024-03-08T03:18:08;14.00;;;6.30;;
53931;SDS011;39844;52.496;13.482;2024-03-08T03:20:33;13.83;;;7.30;;
53931;SDS011;39844;52.496;13.482;2024-03-08T03:22:59;12.70;;;7.47;;
53931;SDS011;39844;52.496;13.482;2024-03-08T03:25:24;18.33;;;8.00;;
53931;SDS011;39844;52.496;13.482;2024-03-08T03:27:49;16.23;;;7.27;;
53931;SDS011;39844;52.496;13.482;2024-03-08T03:30:15;13.47;;;8.03;;
53931;SDS011;39844;52.496;13.482;2024-03-08T03:32:40;10.93;;;6.97;;
53931;SDS011;39844;52.496;13.482;2024-03-08T03:35:05;14.10;;;7.37;;
53931;SDS011;39844;52.496;13.482;2024-03-08T03:37:31;15.67;;;8.47;;
53931;SDS011;39844;52.496;13.482;2024-03-08T03:39:56;17.17;;;8.43;;
53931;SDS011;39844;52.496;13.482;2024-03-08T03:42:22;20.77;;;7.80;;
53931;SDS011;39844;52.496;13.482;2024-03-08T03:44:47;13.40;;;7.43;;
53931;SDS011;39844;52.496;13.482;2024-03-08T03:47:13;23.33;;;9.23;;
53931;SDS011;39844;52.496;13.482;2024-03-08T03:49:41;17.17;;;8.37;;
53931;SDS011;39844;52.496;13.482;2024-03-08T03:52:07;14.80;;;7.53;;
53931;SDS011;39844;52.496;13.482;2024-03-08T03:54:32;14.77;;;6.77;;
53931;SDS011;39844;52.496;13.482;2024-03-08T03:56:58;20.17;;;8.47;;
53931;SDS011;39844;52.496;13.482;2024-03-08T03:59:23;10.93;;;7.20;;
53931;SDS011;39844;52.496;13.482;2024-03-08T04:01:48;12.93;;;8.03;;
53931;SDS011;39844;52.496;13.482;2024-03-08T04:04:14;22.33;;;9.27;;
53931;SDS011;39844;52.496;13.482;2024-03-08T04:06:39;13.33;;;7.73;;
53931;SDS011;39844;52.496;13.482;2024-03-08T04:09:04;21.70;;;8.47;;
53931;SDS011;39844;52.496;13.482;2024-03-08T04:11:29;16.27;;;8.57;;
53931;SDS011;39844;52.496;13.482;2024-03-08T04:13:55;14.77;;;7.50;;
53931;SDS011;39844;52.496;13.482;2024-03-08T04:16:20;13.20;;;6.87;;
53931;SDS011;39844;52.496;13.482;2024-03-08T04:18:46;13.97;;;7.73;;
53931;SDS011;39844;52.496;13.482;2024-03-08T04:21:11;17.03;;;7.53;;
53931;SDS011;39844;52.496;13.482;2024-03-08T04:23:36;16.43;;;7.93;;
53931;SDS011;39844;52.496;13.482;2024-03-08T04:26:04;16.90;;;8.27;;
53931;SDS011;39844;52.496;13.482;2024-03-08T04:28:30;24.33;;;8.60;;
53931;SDS011;39844;52.496;13.482;2024-03-08T04:30:55;17.13;;;8.00;;
53931;SDS011;39844;52.496;13.482;2024-03-08T04:33:20;15.67;;;7.63;;
53931;SDS011;39844;52.496;13.482;2024-03-08T04:35:46;13.20;;;7.80;;
53931;SDS011;39844;52.496;13.482;2024-03-08T04:38:11;14.83;;;7.83;;
53931;SDS011;39844;52.496;13.482;2024-03-08T04:40:36;20.27;;;9.13;;
53931;SDS011;39844;52.496;13.482;2024-03-08T04:43:01;17.63;;;8.67;;
53931;SDS011;39844;52.496;13.482;2024-03-08T04:45:27;18.77;;;8.20;;
53931;SDS011;39844;52.496;13.482;2024-03-08T04:47:52;21.40;;;9.37;;
53931;SDS011;39844;52.496;13.482;2024-03-08T04:50:18;16.30;;;8.83;;
53931;SDS011;39844;52.496;13.482;2024-03-08T04:52:43;20.83;;;8.83;;
53931;SDS011;39844;52.496;13.482;2024-03-08T04:55:09;18.57;;;8.67;;
53931;SDS011;39844;52.496;13.482;2024-03-08T04:57:34;17.03;;;8.10;;
53931;SDS011;39844;52.496;13.482;2024-03-08T05:00:02;16.97;;;9.03;;
53931;SDS011;39844;52.496;13.482;2024-03-08T05:02:28;15.53;;;8.77;;
53931;SDS011;39844;52.496;13.482;2024-03-08T05:04:53;18.23;;;8.80;;
53931;SDS011;39844;52.496;13.482;2024-03-08T05:07:18;19.73;;;8.73;;
53931;SDS011;39844;52.496;13.482;2024-03-08T05:09:44;15.67;;;8.83;;
53931;SDS011;39844;52.496;13.482;2024-03-08T05:12:09;28.73;;;10.40;;
53931;SDS011;39844;52.496;13.482;2024-03-08T05:14:34;16.93;;;9.40;;
53931;SDS011;39844;52.496;13.482;2024-03-08T05:17:00;16.63;;;8.73;;
53931;SDS011;39844;52.496;13.482;2024-03-08T05:19:25;19.80;;;9.07;;
53931;SDS011;39844;52.496;13.482;2024-03-08T05:21:50;16.50;;;8.63;;
53931;SDS011;39844;52.496;13.482;2024-03-08T05:24:16;21.80;;;9.40;;
53931;SDS011;39844;52.496;13.482;2024-03-08T05:26:42;17.20;;;9.00;;
53931;SDS011;39844;52.496;13.482;2024-03-08T05:29:08;20.10;;;9.60;;
53931;SDS011;39844;52.496;13.482;2024-03-08T05:31:36;19.63;;;9.17;;
53931;SDS011;39844;52.496;13.482;2024-03-08T05:34:07;18.20;;;9.10;;
53931;SDS011;39844;52.496;13.482;2024-03-08T05:36:33;19.33;;;8.23;;
53931;SDS011;39844;52.496;13.482;2024-03-08T05:38:58;22.17;;;8.83;;
53931;SDS011;39844;52.496;13.482;2024-03-08T05:41:23;14.07;;;7.93;;
53931;SDS011;39844;52.496;13.482;2024-03-08T05:43:49;19.27;;;9.63;;
53931;SDS011;39844;52.496;13.482;2024-03-08T05:46:15;16.23;;;9.23;;
53931;SDS011;39844;52.496;13.482;2024-03-08T05:48:40;25.20;;;9.13;;
53931;SDS011;39844;52.496;13.482;2024-03-08T05:51:06;18.93;;;9.00;;
53931;SDS011;39844;52.496;13.482;2024-03-08T05:53:31;17.60;;;8.87;;
53931;SDS011;39844;52.496;13.482;2024-03-08T05:55:57;18.80;;;9.07;;
53931;SDS011;39844;52.496;13.482;2024-03-08T05:58:23;22.33;;;10.50;;
53931;SDS011;39844;52.496;13.482;2024-03-08T06:00:48;14.80;;;8.70;;
53931;SDS011;39844;52.496;13.482;2024-03-08T06:03:13;17.73;;;8.77;;
53931;SDS011;39844;52.496;13.482;2024-03-08T06:05:39;15.50;;;7.73;;
53931;SDS011;39844;52.496;13.482;2024-03-08T06:08:04;18.50;;;9.13;;
53931;SDS011;39844;52.496;13.482;2024-03-08T06:10:29;22.30;;;9.70;;
53931;SDS011;39844;52.496;13.482;2024-03-08T06:12:55;12.27;;;6.93;;
53931;SDS011;39844;52.496;13.482;2024-03-08T06:15:20;20.57;;;8.87;;
53931;SDS011;39844;52.496;13.482;2024-03-08T06:17:45;16.77;;;9.80;;
53931;SDS011;39844;52.496;13.482;2024-03-08T06:20:11;12.80;;;7.20;;
53931;SDS011;39844;52.496;13.482;2024-03-08T06:22:39;19.47;;;9.07;;
53931;SDS011;39844;52.496;13.482;2024-03-08T06:25:05;13.77;;;8.10;;
53931;SDS011;39844;52.496;13.482;2024-03-08T06:27:30;15.73;;;8.83;;
53931;SDS011;39844;52.496;13.482;2024-03-08T06:29:56;21.57;;;8.53;;
53931;SDS011;39844;52.496;13.482;2024-03-08T06:32:23;20.60;;;9.30;;
53931;SDS011;39844;52.496;13.482;2024-03-08T06:34:48;16.27;;;8.93;;
53931;SDS011;39844;52.496;13.482;2024-03-08T06:37:14;19.13;;;9.30;;
53931;SDS011;39844;52.496;13.482;2024-03-08T06:39:39;14.80;;;8.67;;
53931;SDS011;39844;52.496;13.482;2024-03-08T06:42:04;21.30;;;9.00;;
53931;SDS011;39844;52.496;13.482;2024-03-08T06:44:29;19.00;;;11.00;;
53931;SDS011;39844;52.496;13.482;2024-03-08T06:46:55;21.33;;;9.93;;
53931;SDS011;39844;52.496;13.482;2024-03-08T06:49:20;16.43;;;8.57;;
53931;SDS011;39844;52.496;13.482;2024-03-08T06:51:45;20.83;;;9.90;;
53931;SDS011;39844;52.496;13.482;2024-03-08T06:54:11;15.93;;;8.93;;
53931;SDS011;39844;52.496;13.482;2024-03-08T06:56:36;12.70;;;6.90;;
53931;SDS011;39844;52.496;13.482;2024-03-08T06:59:01;16.50;;;8.13;;
53931;SDS011;39844;52.496;13.482;2024-03-08T07:01:27;9.83;;;7.23;;
53931;SDS011;39844;52.496;13.482;2024-03-08T07:03:52;19.17;;;8.67;;
53931;SDS011;39844;52.496;13.482;2024-03-08T07:06:18;19.63;;;10.07;;
53931;SDS011;39844;52.496;13.482;2024-03-08T07:08:43;17.07;;;8.40;;
53931;SDS011;39844;52.496;13.482;2024-03-08T07:11:08;20.87;;;8.90;;
53931;SDS011;39844;52.496;13.482;2024-03-08T07:13:34;18.13;;;8.27;;
53931;SDS011;39844;52.496;13.482;2024-03-08T07:15:59;16.13;;;8.43;;
53931;SDS011;39844;52.496;13.482;2024-03-08T07:18:24;14.93;;;8.73;;
53931;SDS011;39844;52.496;13.482;2024-03-08T07:20:49;20.10;;;8.57;;
53931;SDS011;39844;52.496;13.482;2024-03-08T07:23:15;21.23;;;10.17;;
53931;SDS011;39844;52.496;13.482;2024-03-08T07:25:40;17.17;;;9.47;;
53931;SDS011;39844;52.496;13.482;2024-03-08T07:28:05;14.90;;;9.13;;
53931;SDS011;39844;52.496;13.482;2024-03-08T07:30:31;21.80;;;10.20;;
53931;SDS011;39844;52.496;13.482;2024-03-08T07:32:56;19.13;;;8.53;;
53931;SDS011;39844;52.496;13.482;2024-03-08T07:35:21;18.27;;;8.57;;
53931;SDS011;39844;52.496;13.482;2024-03-08T07:37:46;19.07;;;9.67;;
53931;SDS011;39844;52.496;13.482;2024-03-08T07:40:12;21.00;;;9.47;;
53931;SDS011;39844;52.496;13.482;2024-03-08T07:42:37;16.93;;;8.93;;
53931;SDS011;39844;52.496;13.482;2024-03-08T07:45:02;19.60;;;9.83;;
53931;SDS011;39844;52.496;13.482;2024-03-08T07:47:28;21.37;;;9.10;;
53931;SDS011;39844;52.496;13.482;2024-03-08T07:49:56;14.53;;;7.53;;
53931;SDS011;39844;52.496;13.482;2024-03-08T07:52:21;15.30;;;8.33;;
53931;SDS011;39844;52.496;13.482;2024-03-08T07:54:46;19.63;;;8.93;;
53931;SDS011;39844;52.496;13.482;2024-03-08T07:57:12;23.50;;;9.80;;
53931;SDS011;39844;52.496;13.482;2024-03-08T07:59:37;19.27;;;9.77;;
53931;SDS011;39844;52.496;13.482;2024-03-08T08:02:02;24.20;;;8.23;;
53931;SDS011;39844;52.496;13.482;2024-03-08T08:04:28;24.37;;;8.87;;
53931;SDS011;39844;52.496;13.482;2024-03-08T08:06:53;17.50;;;8.20;;
53931;SDS011;39844;52.496;13.482;2024-03-08T08:09:18;17.10;;;8.37;;
53931;SDS011;39844;52.496;13.482;2024-03-08T08:11:43;15.37;;;8.70;;
53931;SDS011;39844;52.496;13.482;2024-03-08T08:14:09;16.10;;;8.80;;
53931;SDS011;39844;52.496;13.482;2024-03-08T08:16:35;15.67;;;8.70;;
53931;SDS011;39844;52.496;13.482;2024-03-08T08:19:01;15.77;;;8.77;;
53931;SDS011;39844;52.496;13.482;2024-03-08T08:21:26;17.00;;;8.33;;
53931;SDS011;39844;52.496;13.482;2024-03-08T08:23:51;17.50;;;9.80;;
53931;SDS011;39844;52.496;13.482;2024-03-08T08:26:16;19.30;;;8.50;;
53931;SDS011;39844;52.496;13.482;2024-03-08T08:28:42;18.07;;;9.20;;
53931;SDS011;39844;52.496;13.482;2024-03-08T08:31:07;19.40;;;8.07;;
53931;SDS011;39844;52.496;13.482;2024-03-08T08:33:32;15.50;;;7.27;;
53931;SDS011;39844;52.496;13.482;2024-03-08T08:35:58;15.53;;;8.77;;
53931;SDS011;39844;52.496;13.482;2024-03-08T08:38:23;13.13;;;8.07;;
53931;SDS011;39844;52.496;13.482;2024-03-08T08:40:48;17.17;;;8.47;;
53931;SDS011;39844;52.496;13.482;2024-03-08T08:43:14;21.23;;;9.13;;
53931;SDS011;39844;52.496;13.482;2024-03-08T08:45:39;16.23;;;9.17;;
53931;SDS011;39844;52.496;13.482;2024-03-08T08:48:05;15.90;;;9.23;;
53931;SDS011;39844;52.496;13.482;2024-03-08T08:50:31;23.70;;;10.13;;
53931;SDS011;39844;52.496;13.482;2024-03-08T08:52:56;21.13;;;9.40;;
53931;SDS011;39844;52.496;13.482;2024-03-08T08:55:22;14.87;;;8.00;;
53931;SDS011;39844;52.496;13.482;2024-03-08T08:57:47;23.70;;;9.20;;
53931;SDS011;39844;52.496;13.482;2024-03-08T09:00:13;18.87;;;9.50;;
53931;SDS011;39844;52.496;13.482;2024-03-08T09:02:38;22.50;;;10.07;;
53931;SDS011;39844;52.496;13.482;2024-03-08T09:05:04;16.87;;;9.47;;
53931;SDS011;39844;52.496;13.482;2024-03-08T09:07:29;17.40;;;8.70;;
53931;SDS011;39844;52.496;13.482;2024-03-08T09:09:54;20.13;;;8.97;;
53931;SDS011;39844;52.496;13.482;2024-03-08T09:12:20;16.43;;;8.67;;
53931;SDS011;39844;52.496;13.482;2024-03-08T09:14:45;17.40;;;9.00;;
53931;SDS011;39844;52.496;13.482;2024-03-08T09:17:10;24.77;;;9.40;;
53931;SDS011;39844;52.496;13.482;2024-03-08T09:19:36;17.83;;;9.40;;
53931;SDS011;39844;52.496;13.482;2024-03-08T09:22:01;18.13;;;8.57;;
53931;SDS011;39844;52.496;13.482;2024-03-08T09:24:27;18.67;;;8.93;;
53931;SDS011;39844;52.496;13.482;2024-03-08T09:26:52;18.37;;;8.77;;
53931;SDS011;39844;52.496;13.482;2024-03-08T09:29:17;16.80;;;8.73;;
53931;SDS011;39844;52.496;13.482;2024-03-08T09:31:42;18.53;;;8.17;;
53931;SDS011;39844;52.496;13.482;2024-03-08T09:34:08;20.47;;;9.37;;
53931;SDS011;39844;52.496;13.482;2024-03-08T09:36:33;17.97;;;9.10;;
53931;SDS011;39844;52.496;13.482;2024-03-08T09:38:59;18.27;;;8.87;;
53931;SDS011;39844;52.496;13.482;2024-03-08T09:41:24;16.43;;;8.53;;
53931;SDS011;39844;52.496;13.482;2024-03-08T09:43:50;21.87;;;9.37;;
53931;SDS011;39844;52.496;13.482;2024-03-08T09:46:15;16.97;;;9.20;;
53931;SDS011;39844;52.496;13.482;2024-03-08T09:48:42;14.70;;;9.07;;
53931;SDS011;39844;52.496;13.482;2024-03-08T09:51:08;22.20;;;8.80;;
53931;SDS011;39844;52.496;13.482;2024-03-08T09:53:34;17.27;;;7.87;;
53931;SDS011;39844;52.496;13.482;2024-03-08T09:56:00;15.07;;;8.33;;
53931;SDS011;39844;52.496;13.482;2024-03-08T09:58:25;17.10;;;8.47;;
53931;SDS011;39844;52.496;13.482;2024-03-08T10:00:50;15.60;;;8.30;;
53931;SDS011;39844;52.496;13.482;2024-03-08T10:03:16;19.57;;;9.07;;
53931;SDS011;39844;52.496;13.482;2024-03-08T10:05:41;18.13;;;8.73;;
53931;SDS011;39844;52.496;13.482;2024-03-08T10:08:07;14.67;;;8.53;;
53931;SDS011;39844;52.496;13.482;2024-03-08T10:10:35;19.40;;;8.50;;
53931;SDS011;39844;52.496;13.482;2024-03-08T10:13:01;16.00;;;8.53;;
53931;SDS011;39844;52.496;13.482;2024-03-08T10:15:30;17.80;;;8.63;;
53931;SDS011;39844;52.496;13.482;2024-03-08T10:17:55;15.90;;;8.20;;
53931;SDS011;39844;52.496;13.482;2024-03-08T10:20:21;15.57;;;8.93;;
53931;SDS011;39844;52.496;13.482;2024-03-08T10:22:46;14.63;;;8.10;;
53931;SDS011;39844;52.496;13.482;2024-03-08T10:25:12;16.90;;;7.97;;
53931;SDS011;39844;52.496;13.482;2024-03-08T10:27:41;15.17;;;8.33;;
53931;SDS011;39844;52.496;13.482;2024-03-08T10:30:08;13.30;;;7.57;;
53931;SDS011;39844;52.496;13.482;2024-03-08T10:32:37;16.07;;;8.60;;
53931;SDS011;39844;52.496;13.482;2024-03-08T10:35:03;16.67;;;8.13;;
53931;SDS011;39844;52.496;13.482;2024-03-08T10:37:28;17.33;;;7.47;;
53931;SDS011;39844;52.496;13.482;2024-03-08T10:39:59;17.33;;;7.40;;
53931;SDS011;39844;52.496;13.482;2024-03-08T10:42:28;16.80;;;7.30;;
53931;SDS011;39844;52.496;13.482;2024-03-08T10:45:05;11.10;;;6.43;;
53931;SDS011;39844;52.496;13.482;2024-03-08T10:47:49;12.33;;;6.53;;
53931;SDS011;39844;52.496;13.482;2024-03-08T10:50:19;15.60;;;7.33;;
53931;SDS011;39844;52.496;13.482;2024-03-08T10:52:45;11.90;;;6.60;;
53931;SDS011;39844;52.496;13.482;2024-03-08T10:55:10;13.93;;;7.37;;
53931;SDS011;39844;52.496;13.482;2024-03-08T10:57:38;14.17;;;6.73;;
53931;SDS011;39844;52.496;13.482;2024-03-08T11:00:04;12.37;;;7.00;;
53931;SDS011;39844;52.496;13.482;2024-03-08T11:02:31;13.63;;;7.20;;
53931;SDS011;39844;52.496;13.482;2024-03-08T11:04:57;12.40;;;6.57;;
53931;SDS011;39844;52.496;13.482;2024-03-08T11:07:22;12.80;;;6.90;;
53931;SDS011;39844;52.496;13.482;2024-03-08T11:09:48;17.70;;;8.00;;
53931;SDS011;39844;52.496;13.482;2024-03-08T11:12:26;18.70;;;8.00;;
53931;SDS011;39844;52.496;13.482;2024-03-08T11:14:53;11.93;;;7.23;;
53931;SDS011;39844;52.496;13.482;2024-03-08T11:19:55;13.07;;;6.73;;
53931;SDS011;39844;52.496;13.482;2024-03-08T11:22:22;13.47;;;6.87;;
53931;SDS011;39844;52.496;13.482;2024-03-08T11:24:48;11.83;;;7.00;;
53931;SDS011;39844;52.496;13.482;2024-03-08T11:27:13;12.37;;;7.00;;
53931;SDS011;39844;52.496;13.482;2024-03-08T11:29:40;12.73;;;6.80;;
53931;SDS011;39844;52.496;13.482;2024-03-08T11:34:35;13.87;;;7.90;;
53931;SDS011;39844;52.496;13.482;2024-03-08T11:37:03;13.13;;;6.17;;
53931;SDS011;39844;52.496;13.482;2024-03-08T11:39:29;14.60;;;7.57;;
53931;SDS011;39844;52.496;13.482;2024-03-08T11:41:54;9.97;;;6.60;;
53931;SDS011;39844;52.496;13.482;2024-03-08T11:44:20;11.13;;;6.63;;
53931;SDS011;39844;52.496;13.482;2024-03-08T11:46:45;14.90;;;6.97;;
53931;SDS011;39844;52.496;13.482;2024-03-08T11:49:10;11.73;;;7.33;;
53931;SDS011;39844;52.496;13.482;2024-03-08T11:51:36;11.17;;;7.23;;
53931;SDS011;39844;52.496;13.482;2024-03-08T11:54:01;13.03;;;7.07;;
53931;SDS011;39844;52.496;13.482;2024-03-08T11:56:26;14.60;;;7.73;;
53931;SDS011;39844;52.496;13.482;2024-03-08T11:58:53;13.23;;;7.13;;
53931;SDS011;39844;52.496;13.482;2024-03-08T12:01:19;13.27;;;7.33;;
53931;SDS011;39844;52.496;13.482;2024-03-08T12:03:44;13.23;;;7.83;;
53931;SDS011;39844;52.496;13.482;2024-03-08T12:06:18;15.13;;;8.63;;
53931;SDS011;39844;52.496;13.482;2024-03-08T12:08:43;13.00;;;7.73;;
53931;SDS011;39844;52.496;13.482;2024-03-08T12:11:08;12.30;;;7.77;;
53931;SDS011;39844;52.496;13.482;2024-03-08T12:13:34;15.80;;;7.63;;
53931;SDS011;39844;52.496;13.482;2024-03-08T12:16:03;13.57;;;7.30;;
53931;SDS011;39844;52.496;13.482;2024-03-08T12:18:28;13.40;;;7.33;;
53931;SDS011;39844;52.496;13.482;2024-03-08T12:23:32;11.07;;;6.60;;
53931;SDS011;39844;52.496;13.482;2024-03-08T12:25:57;13.10;;;7.50;;
53931;SDS011;39844;52.496;13.482;2024-03-08T12:28:23;17.07;;;7.70;;
53931;SDS011;39844;52.496;13.482;2024-03-08T12:30:49;17.27;;;8.37;;
53931;SDS011;39844;52.496;13.482;2024-03-08T12:33:15;17.67;;;7.97;;
53931;SDS011;39844;52.496;13.482;2024-03-08T12:35:40;11.27;;;6.70;;
53931;SDS011;39844;52.496;13.482;2024-03-08T12:38:06;21.47;;;7.97;;
53931;SDS011;39844;52.496;13.482;2024-03-08T12:40:32;13.27;;;7.47;;
53931;SDS011;39844;52.496;13.482;2024-03-08T12:42:58;18.53;;;8.03;;
53931;SDS011;39844;52.496;13.482;2024-03-08T12:45:24;17.17;;;8.17;;
53931;SDS011;39844;52.496;13.482;2024-03-08T12:47:53;13.83;;;8.07;;
53931;SDS011;39844;52.496;13.482;2024-03-08T12:50:19;16.20;;;7.43;;
53931;SDS011;39844;52.496;13.482;2024-03-08T12:52:46;13.37;;;7.17;;
53931;SDS011;39844;52.496;13.482;2024-03-08T12:55:12;12.20;;;6.83;;
53931;SDS011;39844;52.496;13.482;2024-03-08T12:57:37;15.20;;;7.60;;
53931;SDS011;39844;52.496;13.482;2024-03-08T13:00:03;12.57;;;6.97;;
53931;SDS011;39844;52.496;13.482;2024-03-08T13:02:29;10.90;;;7.13;;
53931;SDS011;39844;52.496;13.482;2024-03-08T13:04:55;13.60;;;7.43;;
53931;SDS011;39844;52.496;13.482;2024-03-08T13:07:21;15.30;;;7.47;;
53931;SDS011;39844;52.496;13.482;2024-03-08T13:09:47;12.70;;;7.57;;
53931;SDS011;39844;52.496;13.482;2024-03-08T13:12:12;13.20;;;7.53;;
53931;SDS011;39844;52.496;13.482;2024-03-08T13:14:37;14.17;;;8.00;;
53931;SDS011;39844;52.496;13.482;2024-03-08T13:17:05;14.57;;;7.97;;
53931;SDS011;39844;52.496;13.482;2024-03-08T13:19:30;12.73;;;7.33;;
53931;SDS011;39844;52.496;13.482;2024-03-08T13:21:55;13.23;;;7.13;;
53931;SDS011;39844;52.496;13.482;2024-03-08T13:24:21;15.40;;;7.63;;
53931;SDS011;39844;52.496;13.482;2024-03-08T13:26:46;11.97;;;6.93;;
53931;SDS011;39844;52.496;13.482;2024-03-08T13:29:12;11.67;;;7.10;;
53931;SDS011;39844;52.496;13.482;2024-03-08T13:31:37;11.30;;;6.47;;
53931;SDS011;39844;52.496;13.482;2024-03-08T13:34:03;11.90;;;6.97;;
53931;SDS011;39844;52.496;13.482;2024-03-08T13:36:28;13.60;;;7.23;;
53931;SDS011;39844;52.496;13.482;2024-03-08T13:38:53;13.03;;;7.23;;
53931;SDS011;39844;52.496;13.482;2024-03-08T13:41:19;14.53;;;7.33;;
53931;SDS011;39844;52.496;13.482;2024-03-08T13:43:45;11.20;;;7.27;;
53931;SDS011;39844;52.496;13.482;2024-03-08T13:46:12;12.03;;;7.13;;
53931;SDS011;39844;52.496;13.482;2024-03-08T13:48:38;11.33;;;6.90;;
53931;SDS011;39844;52.496;13.482;2024-03-08T13:51:06;8.73;;;6.13;;
53931;SDS011;39844;52.496;13.482;2024-03-08T13:53:32;10.77;;;6.60;;
53931;SDS011;39844;52.496;13.482;2024-03-08T13:55:57;11.67;;;6.17;;
53931;SDS011;39844;52.496;13.482;2024-03-08T13:58:22;13.00;;;7.33;;
53931;SDS011;39844;52.496;13.482;2024-03-08T14:00:48;9.57;;;6.37;;
53931;SDS011;39844;52.496;13.482;2024-03-08T14:03:13;11.10;;;6.67;;
53931;SDS011;39844;52.496;13.482;2024-03-08T14:05:41;10.43;;;5.87;;
53931;SDS011;39844;52.496;13.482;2024-03-08T14:08:07;12.37;;;7.23;;
53931;SDS011;39844;52.496;13.482;2024-03-08T14:10:32;12.27;;;6.47;;
53931;SDS011;39844;52.496;13.482;2024-03-08T14:12:58;15.03;;;7.20;;
53931;SDS011;39844;52.496;13.482;2024-03-08T14:15:23;10.20;;;6.87;;
53931;SDS011;39844;52.496;13.482;2024-03-08T14:17:52;9.73;;;5.97;;
53931;SDS011;39844;52.496;13.482;2024-03-08T14:20:18;13.57;;;6.77;;
53931;SDS011;39844;52.496;13.482;2024-03-08T14:22:43;12.07;;;6.40;;